createdAt,value
2018-06-01T00:00:30.527Z,21.00
2018-06-01T00:02:59.150Z,21.00
2018-06-01T00:05:27.088Z,21.00
2018-06-01T00:07:55.725Z,21.00
2018-06-01T00:10:23.562Z,20.90
2018-06-01T00:12:51.439Z,21.00
2018-06-01T00:15:19.303Z,21.00
2018-06-01T00:17:47.185Z,20.90
2018-06-01T00:20:15.056Z,20.90
2018-06-01T00:22:42.918Z,21.00
2018-06-01T00:25:10.821Z,20.90
2018-06-01T00:27:38.660Z,20.90
2018-06-01T00:30:06.538Z,20.90
2018-06-01T00:32:34.406Z,20.90
2018-06-01T00:35:02.234Z,20.90
2018-06-01T00:37:30.086Z,20.90
2018-06-01T00:39:57.973Z,20.90
2018-06-01T00:42:25.832Z,20.90
2018-06-01T00:44:53.682Z,20.90
2018-06-01T00:47:21.544Z,20.90
2018-06-01T00:49:50.154Z,20.90
2018-06-01T00:52:18.000Z,20.90
2018-06-01T00:54:57.765Z,20.90
2018-06-01T00:57:25.644Z,20.90
2018-06-01T00:59:53.501Z,20.80
2018-06-01T01:02:21.347Z,20.80
2018-06-01T01:04:49.209Z,20.80
2018-06-01T01:07:17.058Z,20.80
2018-06-01T01:09:45.685Z,20.80
2018-06-01T01:12:13.550Z,20.80
2018-06-01T01:14:41.436Z,20.80
2018-06-01T01:17:09.537Z,20.80
2018-06-01T01:19:37.374Z,20.70
2018-06-01T01:22:05.255Z,20.70
2018-06-01T01:24:33.083Z,20.70
2018-06-01T01:27:00.941Z,20.70
2018-06-01T01:29:28.809Z,20.70
2018-06-01T01:31:56.667Z,20.70
2018-06-01T01:34:24.514Z,20.70
2018-06-01T01:36:53.165Z,20.60
2018-06-01T01:39:21.070Z,20.60
2018-06-01T01:41:49.700Z,20.70
2018-06-01T01:44:17.569Z,20.60
2018-06-01T01:46:45.452Z,20.60
2018-06-01T01:49:13.298Z,20.60
2018-06-01T01:51:41.179Z,20.60
2018-06-01T01:54:09.063Z,20.60
2018-06-01T01:56:37.026Z,20.60
2018-06-01T01:59:04.906Z,20.60
2018-06-01T02:01:32.801Z,20.50
2018-06-01T02:04:00.717Z,20.50
2018-06-01T02:06:28.590Z,20.50
2018-06-01T02:08:56.446Z,20.50
2018-06-01T02:11:24.315Z,20.50
2018-06-01T02:13:52.172Z,20.50
2018-06-01T02:16:20.055Z,20.40
2018-06-01T02:18:47.916Z,20.40
2018-06-01T02:21:15.791Z,20.50
2018-06-01T02:23:43.643Z,20.50
2018-06-01T02:26:11.478Z,20.40
2018-06-01T02:28:39.375Z,20.40
2018-06-01T02:31:07.257Z,20.40
2018-06-01T02:33:35.132Z,20.40
2018-06-01T02:36:02.974Z,20.30
2018-06-01T02:38:31.638Z,20.30
2018-06-01T02:40:59.512Z,20.30
2018-06-01T02:43:27.375Z,20.30
2018-06-01T02:45:55.221Z,20.30
2018-06-01T02:48:23.106Z,20.30
2018-06-01T02:50:50.966Z,20.30
2018-06-01T02:53:18.878Z,20.30
2018-06-01T02:55:46.740Z,20.30
2018-06-01T02:58:14.595Z,20.20
2018-06-01T03:00:42.506Z,20.30
2018-06-01T03:03:11.121Z,20.20
2018-06-01T03:05:39.025Z,20.20
2018-06-01T03:08:06.898Z,20.20
2018-06-01T03:10:34.775Z,20.20
2018-06-01T03:13:02.626Z,20.20
2018-06-01T03:15:30.501Z,20.20
2018-06-01T03:17:58.362Z,20.20
2018-06-01T03:20:26.257Z,20.10
2018-06-01T03:22:54.874Z,20.10
2018-06-01T03:25:22.723Z,20.10
2018-06-01T03:27:50.583Z,20.10
2018-06-01T03:30:19.204Z,20.10
2018-06-01T03:32:47.060Z,20.10
2018-06-01T03:35:14.942Z,20.00
2018-06-01T03:37:42.771Z,20.00
2018-06-01T03:40:10.702Z,19.90
2018-06-01T03:42:38.692Z,19.90
2018-06-01T03:45:07.310Z,19.90
2018-06-01T03:47:35.139Z,19.80
2018-06-01T03:50:03.916Z,19.80
2018-06-01T03:52:31.886Z,19.80
2018-06-01T03:54:59.758Z,19.70
2018-06-01T03:57:28.403Z,19.70
2018-06-01T03:59:56.293Z,19.70
2018-06-01T04:02:24.154Z,19.70
2018-06-01T04:04:52.002Z,19.60
2018-06-01T04:07:19.842Z,19.60
2018-06-01T04:09:47.707Z,19.60
2018-06-01T04:12:16.515Z,19.60
2018-06-01T04:14:44.386Z,19.60
2018-06-01T04:17:12.255Z,19.60
2018-06-01T04:19:40.102Z,19.70
2018-06-01T04:22:07.965Z,19.70
2018-06-01T04:24:35.822Z,19.70
2018-06-01T04:27:03.716Z,19.70
2018-06-01T04:29:31.681Z,19.70
2018-06-01T04:31:59.525Z,19.80
2018-06-01T04:34:27.385Z,19.80
2018-06-01T04:36:55.253Z,19.90
2018-06-01T04:39:23.127Z,19.90
2018-06-01T04:41:50.996Z,20.00
2018-06-01T04:44:18.829Z,20.00
2018-06-01T04:46:46.721Z,20.00
2018-06-01T04:49:14.561Z,20.00
2018-06-01T04:51:43.215Z,20.10
2018-06-01T04:54:11.115Z,20.00
2018-06-01T04:56:39.717Z,20.10
2018-06-01T04:59:08.308Z,20.10
2018-06-01T05:01:36.150Z,20.10
2018-06-01T05:04:04.021Z,20.20
2018-06-01T05:06:32.668Z,20.30
2018-06-01T05:09:00.568Z,20.30
2018-06-01T05:11:28.520Z,20.30
2018-06-01T05:13:56.362Z,20.40
2018-06-01T05:16:24.269Z,20.40
2018-06-01T05:18:52.152Z,20.50
2018-06-01T05:21:20.787Z,20.60
2018-06-01T05:23:48.657Z,20.60
2018-06-01T05:26:16.531Z,20.70
2018-06-01T05:28:44.464Z,20.80
2018-06-01T05:31:12.324Z,20.90
2018-06-01T05:33:40.192Z,20.90
2018-06-01T05:36:08.063Z,21.00
2018-06-01T05:38:35.893Z,21.00
2018-06-01T05:41:04.515Z,21.10
2018-06-01T05:43:32.386Z,21.20
2018-06-01T05:46:00.252Z,21.20
2018-06-01T05:48:28.176Z,21.40
2018-06-01T05:50:56.806Z,21.50
2018-06-01T05:53:24.743Z,21.50
2018-06-01T05:55:53.399Z,21.60
2018-06-01T05:58:21.286Z,21.60
2018-06-01T06:00:49.893Z,21.70
2018-06-01T06:03:17.774Z,21.70
2018-06-01T06:05:45.673Z,21.80
2018-06-01T06:08:13.543Z,21.80
2018-06-01T06:10:41.460Z,21.90
2018-06-01T06:13:09.336Z,22.00
2018-06-01T06:15:37.214Z,22.00
2018-06-01T06:18:05.531Z,22.10
2018-06-01T06:20:33.443Z,22.20
2018-06-01T06:23:01.293Z,22.30
2018-06-01T06:25:29.922Z,22.40
2018-06-01T06:27:57.844Z,22.40
2018-06-01T06:30:25.779Z,22.60
2018-06-01T06:32:53.609Z,22.70
2018-06-01T06:35:21.477Z,22.80
2018-06-01T06:37:49.319Z,22.90
2018-06-01T06:40:17.199Z,23.00
2018-06-01T06:42:45.053Z,23.10
2018-06-01T06:45:12.917Z,23.20
2018-06-01T06:47:40.782Z,23.30
2018-06-01T06:50:08.620Z,23.40
2018-06-01T06:52:36.489Z,23.50
2018-06-01T06:55:04.424Z,23.60
2018-06-01T06:57:32.297Z,23.70
2018-06-01T07:00:00.158Z,23.70
2018-06-01T07:02:28.044Z,23.80
2018-06-01T07:04:55.945Z,23.80
2018-06-01T07:07:24.568Z,24.00
2018-06-01T07:09:52.418Z,23.90
2018-06-01T07:12:20.283Z,24.00
2018-06-01T07:14:48.114Z,24.10
2018-06-01T07:17:16.748Z,24.20
2018-06-01T07:19:44.639Z,24.20
2018-06-01T07:22:13.292Z,24.30
2018-06-01T07:24:41.199Z,24.30
2018-06-01T07:27:09.047Z,24.30
2018-06-01T07:29:36.889Z,24.30
2018-06-01T07:32:04.749Z,24.40
2018-06-01T07:34:32.623Z,24.50
2018-06-01T07:37:00.479Z,24.60
2018-06-01T07:39:28.340Z,24.70
2018-06-01T07:41:56.186Z,24.70
2018-06-01T07:44:24.816Z,24.80
2018-06-01T07:46:52.673Z,24.80
2018-06-01T07:49:20.531Z,24.90
2018-06-01T07:51:48.385Z,25.00
2018-06-01T07:54:16.254Z,25.10
2018-06-01T07:56:44.119Z,25.20
2018-06-01T07:59:11.984Z,25.30
2018-06-01T08:01:39.853Z,25.50
2018-06-01T08:04:07.727Z,25.60
2018-06-01T08:06:35.625Z,25.70
2018-06-01T08:09:03.607Z,25.80
2018-06-01T08:11:31.482Z,25.90
2018-06-01T08:13:59.347Z,26.00
2018-06-01T08:16:27.225Z,26.00
2018-06-01T08:18:55.084Z,26.10
2018-06-01T08:21:22.913Z,26.20
2018-06-01T08:23:50.785Z,26.30
2018-06-01T08:26:18.655Z,26.40
2018-06-01T08:28:46.508Z,26.50
2018-06-01T08:31:14.338Z,26.70
2018-06-01T08:33:42.975Z,26.90
2018-06-01T08:36:10.819Z,26.90
2018-06-01T08:38:38.684Z,27.00
2018-06-01T08:41:06.613Z,27.20
2018-06-01T08:43:35.287Z,27.40
2018-06-01T08:46:03.156Z,27.40
2018-06-01T08:48:31.022Z,27.40
2018-06-01T08:50:58.846Z,27.50
2018-06-01T08:53:26.686Z,27.50
2018-06-01T08:55:54.565Z,27.60
2018-06-01T08:58:22.428Z,27.70
2018-06-01T09:00:50.302Z,27.90
2018-06-01T09:03:18.177Z,27.90
2018-06-01T09:05:46.041Z,28.00
2018-06-01T09:08:13.905Z,28.10
2018-06-01T09:10:41.753Z,28.30
2018-06-01T09:13:09.616Z,28.40
2018-06-01T09:15:38.218Z,28.60
2018-06-01T09:18:06.061Z,28.60
2018-06-01T09:20:33.921Z,28.70
2018-06-01T09:23:02.551Z,28.80
2018-06-01T09:25:30.390Z,28.70
2018-06-01T09:27:58.214Z,28.80
2018-06-01T09:30:26.047Z,29.00
2018-06-01T09:32:53.903Z,29.10
2018-06-01T09:35:21.787Z,29.30
2018-06-01T09:37:49.655Z,29.40
2018-06-01T09:40:17.519Z,29.50
2018-06-01T09:42:45.371Z,29.70
2018-06-01T09:45:13.245Z,29.80
2018-06-01T09:47:41.083Z,30.00
2018-06-01T09:50:08.975Z,30.10
2018-06-01T09:52:36.789Z,30.20
2018-06-01T09:55:04.687Z,30.30
2018-06-01T09:57:32.573Z,30.30
2018-06-01T10:00:00.458Z,30.30
2018-06-01T10:02:28.336Z,30.50
2018-06-01T10:04:56.227Z,30.60
2018-06-01T10:07:24.841Z,30.90
2018-06-01T10:09:58.239Z,30.90
2018-06-01T10:12:26.073Z,31.10
2018-06-01T10:14:54.692Z,31.30
2018-06-01T10:17:22.973Z,31.20
2018-06-01T10:19:50.815Z,31.40
2018-06-01T10:22:18.719Z,31.40
2018-06-01T10:24:46.569Z,31.40
2018-06-01T10:27:14.408Z,31.40
2018-06-01T10:29:43.034Z,31.50
2018-06-01T10:32:10.897Z,31.60
2018-06-01T10:34:38.747Z,31.60
2018-06-01T10:37:06.595Z,31.70
2018-06-01T10:39:35.255Z,31.90
2018-06-01T10:42:03.127Z,31.80
2018-06-01T10:44:31.009Z,32.00
2018-06-01T10:46:59.652Z,32.20
2018-06-01T10:49:27.497Z,32.20
2018-06-01T10:51:55.424Z,32.40
2018-06-01T10:54:24.077Z,32.50
2018-06-01T10:56:51.976Z,32.50
2018-06-01T10:59:20.597Z,32.70
2018-06-01T11:01:48.457Z,32.70
2018-06-01T11:04:16.281Z,32.80
2018-06-01T11:06:44.158Z,32.90
2018-06-01T11:09:12.812Z,33.20
2018-06-01T11:11:40.675Z,33.10
2018-06-01T11:14:08.544Z,33.20
2018-06-01T11:16:36.411Z,33.30
2018-06-01T11:19:04.302Z,33.40
2018-06-01T11:21:33.015Z,33.50
2018-06-01T11:24:00.878Z,33.50
2018-06-01T11:26:28.780Z,33.50
2018-06-01T11:28:56.676Z,33.60
2018-06-01T11:31:24.548Z,33.60
2018-06-01T11:33:52.416Z,33.60
2018-06-01T11:36:20.253Z,33.70
2018-06-01T11:38:48.104Z,33.90
2018-06-01T11:41:15.961Z,34.00
2018-06-01T11:43:43.805Z,34.10
2018-06-01T11:46:12.482Z,34.30
2018-06-01T11:48:40.345Z,34.20
2018-06-01T11:51:08.961Z,34.50
2018-06-01T11:53:36.808Z,34.50
2018-06-01T11:56:04.661Z,34.40
2018-06-01T11:58:33.271Z,34.30
2018-06-01T12:01:01.124Z,34.30
2018-06-01T12:03:29.718Z,34.50
2018-06-01T12:05:57.614Z,34.50
2018-06-01T12:08:25.449Z,34.60
2018-06-01T12:10:53.340Z,34.80
2018-06-01T12:13:21.201Z,34.80
2018-06-01T12:15:49.082Z,34.80
2018-06-01T12:18:16.921Z,34.80
2018-06-01T12:20:44.754Z,34.80
2018-06-01T12:23:12.674Z,34.80
2018-06-01T12:25:40.529Z,34.80
2018-06-01T12:28:08.385Z,34.90
2018-06-01T12:30:36.238Z,34.90
2018-06-01T12:33:04.866Z,34.80
2018-06-01T12:35:33.489Z,34.60
2018-06-01T12:38:02.104Z,34.40
2018-06-01T12:40:29.966Z,34.40
2018-06-01T12:42:57.824Z,34.30
2018-06-01T12:45:25.710Z,34.20
2018-06-01T12:47:53.584Z,34.20
2018-06-01T12:50:21.424Z,34.10
2018-06-01T12:52:50.132Z,33.70
2018-06-01T12:55:17.978Z,33.60
2018-06-01T12:57:45.840Z,33.50
2018-06-01T13:00:14.490Z,33.10
2018-06-01T13:02:42.372Z,33.10
2018-06-01T13:05:10.267Z,32.90
2018-06-01T13:07:38.153Z,32.60
2018-06-01T13:10:06.018Z,32.40
2018-06-01T13:12:33.924Z,32.20
2018-06-01T13:15:01.809Z,32.10
2018-06-01T13:17:29.704Z,31.90
2018-06-01T13:19:58.540Z,31.80
2018-06-01T13:22:26.406Z,31.60
2018-06-01T13:24:54.312Z,31.50
2018-06-01T13:27:22.909Z,31.30
2018-06-01T13:29:50.767Z,31.30
2018-06-01T13:32:19.400Z,31.20
2018-06-01T13:34:47.251Z,31.20
2018-06-01T13:37:15.118Z,31.10
2018-06-01T13:39:42.982Z,31.10
2018-06-01T13:42:10.846Z,31.00
2018-06-01T13:44:38.744Z,31.00
2018-06-01T13:47:06.612Z,30.90
2018-06-01T13:49:34.508Z,30.90
2018-06-01T13:52:03.163Z,30.80
2018-06-01T13:54:31.032Z,30.80
2018-06-01T13:56:58.918Z,30.70
2018-06-01T13:59:26.789Z,30.70
2018-06-01T14:01:54.616Z,30.70
2018-06-01T14:04:22.520Z,30.60
2018-06-01T14:06:50.380Z,30.60
2018-06-01T14:09:18.284Z,30.50
2018-06-01T14:11:46.188Z,30.50
2018-06-01T14:14:14.081Z,30.40
2018-06-01T14:16:41.966Z,30.40
2018-06-01T14:19:10.632Z,30.30
2018-06-01T14:21:38.495Z,30.30
2018-06-01T14:24:06.370Z,30.30
2018-06-01T14:26:34.269Z,30.20
2018-06-01T14:29:02.190Z,30.20
2018-06-01T14:31:30.039Z,30.30
2018-06-01T14:33:58.699Z,30.30
2018-06-01T14:36:26.576Z,30.30
2018-06-01T14:38:54.399Z,30.30
2018-06-01T14:41:23.027Z,30.20
2018-06-01T14:43:50.878Z,30.20
2018-06-01T14:46:18.764Z,30.20
2018-06-01T14:48:46.614Z,30.20
2018-06-01T14:51:14.473Z,30.20
2018-06-01T14:53:42.353Z,30.20
2018-06-01T14:56:10.220Z,30.20
2018-06-01T14:58:38.094Z,30.20
2018-06-01T15:01:05.952Z,30.20
2018-06-01T15:03:33.842Z,30.20
2018-06-01T15:06:01.709Z,30.20
2018-06-01T15:08:29.612Z,30.20
2018-06-01T15:10:58.214Z,30.10
2018-06-01T15:13:26.991Z,30.10
2018-06-01T15:15:55.608Z,30.00
2018-06-01T15:18:23.494Z,30.00
2018-06-01T15:20:51.351Z,30.10
2018-06-01T15:23:19.217Z,30.00
2018-06-01T15:25:47.132Z,30.00
2018-06-01T15:28:14.984Z,30.00
2018-06-01T15:30:42.833Z,29.90
2018-06-01T15:33:10.709Z,29.90
2018-06-01T15:35:38.579Z,29.90
2018-06-01T15:38:06.435Z,29.80
2018-06-01T15:40:34.324Z,29.80
2018-06-01T15:43:02.215Z,29.70
2018-06-01T15:45:30.860Z,29.70
2018-06-01T15:47:58.717Z,29.70
2018-06-01T15:50:26.851Z,29.70
2018-06-01T15:52:54.699Z,29.70
2018-06-01T15:55:23.357Z,29.70
2018-06-01T15:57:51.230Z,29.60
2018-06-01T16:00:19.135Z,29.60
2018-06-01T16:02:46.999Z,29.60
2018-06-01T16:05:14.860Z,29.50
2018-06-01T16:07:43.489Z,29.60
2018-06-01T16:10:11.474Z,29.50
2018-06-01T16:12:39.395Z,29.50
2018-06-01T16:15:07.294Z,29.60
2018-06-01T16:17:35.172Z,29.60
2018-06-01T16:20:03.053Z,29.60
2018-06-01T16:22:30.918Z,29.50
2018-06-01T16:24:58.783Z,29.50
2018-06-01T16:27:26.643Z,29.40
2018-06-01T16:29:54.500Z,29.30
2018-06-01T16:32:22.347Z,29.30
2018-06-01T16:34:50.241Z,29.20
2018-06-01T16:37:18.088Z,29.20
2018-06-01T16:39:46.000Z,29.10
2018-06-01T16:42:14.625Z,29.00
2018-06-01T16:44:42.465Z,29.00
2018-06-01T16:47:11.111Z,28.80
2018-06-01T16:49:38.977Z,28.80
2018-06-01T16:52:06.886Z,28.80
2018-06-01T16:54:34.735Z,28.70
2018-06-01T16:57:03.373Z,28.60
2018-06-01T16:59:31.214Z,28.60
2018-06-01T17:01:59.062Z,28.60
2018-06-01T17:04:27.669Z,28.50
2018-06-01T17:06:55.544Z,28.40
2018-06-01T17:09:23.429Z,28.40
2018-06-01T17:11:51.285Z,28.40
2018-06-01T17:14:19.144Z,28.30
2018-06-01T17:16:47.025Z,28.20
2018-06-01T17:19:16.819Z,28.20
2018-06-01T17:21:44.679Z,28.10
2018-06-01T17:24:12.539Z,28.00
2018-06-01T17:26:40.425Z,27.90
2018-06-01T17:29:08.261Z,27.90
2018-06-01T17:31:36.876Z,27.80
2018-06-01T17:34:04.773Z,27.80
2018-06-01T17:36:32.681Z,27.70
2018-06-01T17:39:00.554Z,27.60
2018-06-01T17:41:28.425Z,27.60
2018-06-01T17:43:56.305Z,27.50
2018-06-01T17:46:24.159Z,27.40
2018-06-01T17:48:52.015Z,27.40
2018-06-01T17:51:19.865Z,27.30
2018-06-01T17:53:48.498Z,27.20
2018-06-01T17:56:16.359Z,27.20
2018-06-01T17:58:44.223Z,27.10
2018-06-01T18:01:12.097Z,27.10
2018-06-01T18:03:39.933Z,27.00
2018-06-01T18:06:07.817Z,26.90
2018-06-01T18:08:35.685Z,26.90
2018-06-01T18:11:03.570Z,26.80
2018-06-01T18:13:31.403Z,26.70
2018-06-01T18:15:59.244Z,26.70
2018-06-01T18:18:27.874Z,26.60
2018-06-01T18:20:55.760Z,26.60
2018-06-01T18:23:23.687Z,26.50
2018-06-01T18:25:51.593Z,26.50
2018-06-01T18:28:19.458Z,26.40
2018-06-01T18:30:47.322Z,26.30
2018-06-01T18:33:15.163Z,26.30
2018-06-01T18:35:43.006Z,26.20
2018-06-01T18:38:11.630Z,26.10
2018-06-01T18:40:39.505Z,26.10
2018-06-01T18:43:07.359Z,26.00
2018-06-01T18:45:35.206Z,25.90
2018-06-01T18:48:03.043Z,25.90
2018-06-01T18:50:30.946Z,25.80
2018-06-01T18:52:58.825Z,25.70
2018-06-01T18:55:26.681Z,25.70
2018-06-01T18:57:54.552Z,25.60
2018-06-01T19:00:22.406Z,25.60
2018-06-01T19:02:50.274Z,25.50
2018-06-01T19:05:18.159Z,25.50
2018-06-01T19:07:45.993Z,25.40
2018-06-01T19:10:14.624Z,25.30
2018-06-01T19:12:42.485Z,25.30
2018-06-01T19:15:10.367Z,25.30
2018-06-01T19:17:38.231Z,25.20
2018-06-01T19:20:06.108Z,25.10
2018-06-01T19:22:34.018Z,25.10
2018-06-01T19:25:01.892Z,25.10
2018-06-01T19:27:29.757Z,25.00
2018-06-01T19:29:57.613Z,24.90
2018-06-01T19:32:26.269Z,24.90
2018-06-01T19:34:54.197Z,24.90
2018-06-01T19:37:22.055Z,24.90
2018-06-01T19:39:49.938Z,24.80
2018-06-01T19:42:17.823Z,24.70
2018-06-01T19:44:45.716Z,24.70
2018-06-01T19:47:14.342Z,24.70
2018-06-01T19:49:42.229Z,24.60
2018-06-01T19:52:10.100Z,24.60
2018-06-01T19:54:37.988Z,24.60
2018-06-01T19:57:05.859Z,24.60
2018-06-01T19:59:33.886Z,24.60
2018-06-01T20:02:01.711Z,24.60
2018-06-01T20:04:30.383Z,24.50
2018-06-01T20:06:58.269Z,24.50
2018-06-01T20:09:26.895Z,24.50
2018-06-01T20:11:54.768Z,24.50
2018-06-01T20:14:22.621Z,24.50
2018-06-01T20:16:50.490Z,24.40
2018-06-01T20:19:18.351Z,24.40
2018-06-01T20:21:46.193Z,24.30
2018-06-01T20:24:14.046Z,24.30
2018-06-01T20:26:42.643Z,24.30
2018-06-01T20:29:10.543Z,24.30
2018-06-01T20:31:38.415Z,24.30
2018-06-01T20:34:06.287Z,24.30
2018-06-01T20:36:34.138Z,24.30
2018-06-01T20:39:01.982Z,24.20
2018-06-01T20:41:29.849Z,24.20
2018-06-01T20:43:57.684Z,24.20
2018-06-01T20:46:25.564Z,24.20
2018-06-01T20:48:54.187Z,24.10
2018-06-01T20:51:22.078Z,24.10
2018-06-01T20:53:49.943Z,24.10
2018-06-01T20:56:17.914Z,24.10
2018-06-01T20:58:45.810Z,24.10
2018-06-01T21:01:14.429Z,24.00
2018-06-01T21:03:42.269Z,24.00
2018-06-01T21:06:10.928Z,24.00
2018-06-01T21:08:38.820Z,24.00
2018-06-01T21:11:07.510Z,23.90
2018-06-01T21:13:36.163Z,23.80
2018-06-01T21:16:04.060Z,23.80
2018-06-01T21:18:32.686Z,23.80
2018-06-01T21:21:00.536Z,23.80
2018-06-01T21:23:28.409Z,23.80
2018-06-01T21:25:56.262Z,23.70
2018-06-01T21:28:24.146Z,23.70
2018-06-01T21:30:51.996Z,23.70
2018-06-01T21:33:19.829Z,23.70
2018-06-01T21:35:47.662Z,23.70
2018-06-01T21:38:15.539Z,23.60
2018-06-01T21:40:43.411Z,23.60
2018-06-01T21:43:11.266Z,23.60
2018-06-01T21:45:39.121Z,23.60
2018-06-01T21:48:06.994Z,23.60
2018-06-01T21:50:34.883Z,23.60
2018-06-01T21:53:02.752Z,23.60
2018-06-01T21:55:30.614Z,23.50
2018-06-01T21:57:58.455Z,23.50
2018-06-01T22:00:26.311Z,23.50
2018-06-01T22:02:54.158Z,23.50
2018-06-01T22:05:22.050Z,23.40
2018-06-01T22:07:49.920Z,23.40
2018-06-01T22:10:17.794Z,23.40
2018-06-01T22:12:45.652Z,23.40
2018-06-01T22:15:13.499Z,23.30
2018-06-01T22:17:41.361Z,23.30
2018-06-01T22:20:09.231Z,23.30
2018-06-01T22:22:37.162Z,23.20
2018-06-01T22:25:05.846Z,23.20
2018-06-01T22:27:33.690Z,23.10
2018-06-01T22:30:01.556Z,23.10
2018-06-01T22:32:29.397Z,23.10
2018-06-01T22:34:57.272Z,23.10
2018-06-01T22:37:25.112Z,23.00
2018-06-01T22:39:52.961Z,23.00
2018-06-01T22:42:21.612Z,22.90
2018-06-01T22:44:49.509Z,22.90
2018-06-01T22:47:18.135Z,22.90
2018-06-01T22:49:46.007Z,22.90
2018-06-01T22:52:13.854Z,22.80
2018-06-01T22:54:41.726Z,22.80
2018-06-01T22:57:09.600Z,22.80
2018-06-01T22:59:37.461Z,22.80
2018-06-01T23:02:05.384Z,22.80
2018-06-01T23:04:34.002Z,22.70
2018-06-01T23:07:01.896Z,22.70
2018-06-01T23:09:29.745Z,22.70
2018-06-01T23:11:57.621Z,22.70
2018-06-01T23:14:25.489Z,22.70
2018-06-01T23:16:53.355Z,22.70
2018-06-01T23:19:21.192Z,22.60
2018-06-01T23:21:49.867Z,22.60
2018-06-01T23:24:18.486Z,22.60
2018-06-01T23:26:46.353Z,22.60
2018-06-01T23:29:14.215Z,22.60
2018-06-01T23:31:42.090Z,22.60
2018-06-01T23:34:09.959Z,22.50
2018-06-01T23:36:37.813Z,22.50
2018-06-01T23:39:05.713Z,22.50
2018-06-01T23:41:33.568Z,22.40
2018-06-01T23:44:01.467Z,22.40
2018-06-01T23:46:30.101Z,22.30
2018-06-01T23:48:57.994Z,22.40
2018-06-01T23:51:25.832Z,22.30
2018-06-01T23:53:53.683Z,22.30
2018-06-01T23:56:21.548Z,22.20
2018-06-01T23:58:49.407Z,22.20
